sensor_id;sensor_type;location;lat;lon;timestamp;P1;durP1;ratioP1;P2;durP2;ratioP2
66478;SDS011;53294;47.912;13.526;2023-03-23T00:01:24;8.65;;;5.50;;
66478;SDS011;53294;47.912;13.526;2023-03-23T00:03:52;7.10;;;5.07;;
66478;SDS011;53294;47.912;13.526;2023-03-23T00:06:22;7.95;;;5.30;;
66478;SDS011;53294;47.912;13.526;2023-03-23T00:08:49;8.18;;;5.05;;
66478;SDS011;53294;47.912;13.526;2023-03-23T00:11:22;8.07;;;5.13;;
66478;SDS011;53294;47.912;13.526;2023-03-23T00:13:51;8.85;;;5.72;;
66478;SDS011;53294;47.912;13.526;2023-03-23T00:16:18;8.80;;;5.00;;
66478;SDS011;53294;47.912;13.526;2023-03-23T00:18:46;7.60;;;5.40;;
66478;SDS011;53294;47.912;13.526;2023-03-23T00:21:14;7.43;;;4.35;;
66478;SDS011;53294;47.912;13.526;2023-03-23T00:23:40;8.90;;;4.72;;
66478;SDS011;53294;47.912;13.526;2023-03-23T00:26:10;9.38;;;5.45;;
66478;SDS011;53294;47.912;13.526;2023-03-23T00:28:36;9.45;;;4.90;;
66478;SDS011;53294;47.912;13.526;2023-03-23T00:31:05;7.07;;;4.63;;
66478;SDS011;53294;47.912;13.526;2023-03-23T00:33:33;7.60;;;4.70;;
66478;SDS011;53294;47.912;13.526;2023-03-23T00:36:10;7.43;;;4.90;;
66478;SDS011;53294;47.912;13.526;2023-03-23T00:38:37;8.38;;;5.10;;
66478;SDS011;53294;47.912;13.526;2023-03-23T00:41:04;7.28;;;4.38;;
66478;SDS011;53294;47.912;13.526;2023-03-23T00:43:31;6.25;;;3.92;;
66478;SDS011;53294;47.912;13.526;2023-03-23T00:46:00;8.57;;;4.75;;
66478;SDS011;53294;47.912;13.526;2023-03-23T00:48:27;12.68;;;6.60;;
66478;SDS011;53294;47.912;13.526;2023-03-23T00:50:54;8.63;;;5.07;;
66478;SDS011;53294;47.912;13.526;2023-03-23T00:53:20;8.80;;;4.80;;
66478;SDS011;53294;47.912;13.526;2023-03-23T00:55:46;7.63;;;4.05;;
66478;SDS011;53294;47.912;13.526;2023-03-23T00:58:13;6.35;;;3.67;;
66478;SDS011;53294;47.912;13.526;2023-03-23T01:00:40;6.68;;;3.60;;
66478;SDS011;53294;47.912;13.526;2023-03-23T01:03:06;6.70;;;3.85;;
66478;SDS011;53294;47.912;13.526;2023-03-23T01:05:34;8.30;;;4.13;;
66478;SDS011;53294;47.912;13.526;2023-03-23T01:08:02;4.72;;;3.20;;
66478;SDS011;53294;47.912;13.526;2023-03-23T01:10:28;6.38;;;3.85;;
66478;SDS011;53294;47.912;13.526;2023-03-23T01:12:58;6.38;;;3.03;;
66478;SDS011;53294;47.912;13.526;2023-03-23T01:15:25;5.55;;;3.15;;
66478;SDS011;53294;47.912;13.526;2023-03-23T01:17:51;6.30;;;3.15;;
66478;SDS011;53294;47.912;13.526;2023-03-23T01:20:17;5.15;;;2.95;;
66478;SDS011;53294;47.912;13.526;2023-03-23T01:22:43;6.40;;;3.50;;
66478;SDS011;53294;47.912;13.526;2023-03-23T01:25:09;5.80;;;3.15;;
66478;SDS011;53294;47.912;13.526;2023-03-23T01:27:36;7.63;;;2.78;;
66478;SDS011;53294;47.912;13.526;2023-03-23T01:30:02;6.00;;;3.80;;
66478;SDS011;53294;47.912;13.526;2023-03-23T01:32:29;6.25;;;3.60;;
66478;SDS011;53294;47.912;13.526;2023-03-23T01:34:55;6.50;;;4.20;;
66478;SDS011;53294;47.912;13.526;2023-03-23T01:37:21;6.28;;;4.07;;
66478;SDS011;53294;47.912;13.526;2023-03-23T01:39:55;7.28;;;4.35;;
66478;SDS011;53294;47.912;13.526;2023-03-23T01:42:25;5.93;;;4.15;;
66478;SDS011;53294;47.912;13.526;2023-03-23T01:47:21;6.13;;;3.45;;
66478;SDS011;53294;47.912;13.526;2023-03-23T01:49:48;5.95;;;3.00;;
66478;SDS011;53294;47.912;13.526;2023-03-23T01:52:16;6.90;;;3.50;;
66478;SDS011;53294;47.912;13.526;2023-03-23T01:54:50;5.38;;;3.10;;
66478;SDS011;53294;47.912;13.526;2023-03-23T01:57:21;5.60;;;3.13;;
66478;SDS011;53294;47.912;13.526;2023-03-23T01:59:52;4.30;;;2.85;;
66478;SDS011;53294;47.912;13.526;2023-03-23T02:02:21;6.60;;;3.03;;
66478;SDS011;53294;47.912;13.526;2023-03-23T02:04:48;4.63;;;2.92;;
66478;SDS011;53294;47.912;13.526;2023-03-23T02:07:15;4.35;;;2.85;;
66478;SDS011;53294;47.912;13.526;2023-03-23T02:09:44;5.30;;;3.08;;
66478;SDS011;53294;47.912;13.526;2023-03-23T02:12:10;6.30;;;2.58;;
66478;SDS011;53294;47.912;13.526;2023-03-23T02:14:35;5.20;;;3.28;;
66478;SDS011;53294;47.912;13.526;2023-03-23T02:17:13;4.85;;;3.28;;
66478;SDS011;53294;47.912;13.526;2023-03-23T02:29:12;4.07;;;2.60;;
66478;SDS011;53294;47.912;13.526;2023-03-23T02:31:52;5.30;;;2.90;;
66478;SDS011;53294;47.912;13.526;2023-03-23T02:34:27;5.20;;;2.95;;
66478;SDS011;53294;47.912;13.526;2023-03-23T02:37:04;6.15;;;2.85;;
66478;SDS011;53294;47.912;13.526;2023-03-23T02:39:40;5.28;;;3.22;;
66478;SDS011;53294;47.912;13.526;2023-03-23T02:42:11;5.93;;;3.05;;
66478;SDS011;53294;47.912;13.526;2023-03-23T02:44:42;3.58;;;2.40;;
66478;SDS011;53294;47.912;13.526;2023-03-23T02:47:20;4.70;;;2.70;;
66478;SDS011;53294;47.912;13.526;2023-03-23T02:49:51;4.93;;;3.17;;
66478;SDS011;53294;47.912;13.526;2023-03-23T02:52:21;5.03;;;3.35;;
66478;SDS011;53294;47.912;13.526;2023-03-23T02:54:50;3.78;;;2.65;;
66478;SDS011;53294;47.912;13.526;2023-03-23T02:57:17;5.78;;;3.35;;
66478;SDS011;53294;47.912;13.526;2023-03-23T02:59:43;5.43;;;3.42;;
66478;SDS011;53294;47.912;13.526;2023-03-23T03:02:29;6.90;;;3.05;;
66478;SDS011;53294;47.912;13.526;2023-03-23T03:17:19;4.97;;;3.13;;
66478;SDS011;53294;47.912;13.526;2023-03-23T03:22:18;5.05;;;2.90;;
66478;SDS011;53294;47.912;13.526;2023-03-23T03:24:46;5.95;;;3.80;;
66478;SDS011;53294;47.912;13.526;2023-03-23T03:27:14;6.30;;;3.65;;
66478;SDS011;53294;47.912;13.526;2023-03-23T03:29:43;5.30;;;3.13;;
66478;SDS011;53294;47.912;13.526;2023-03-23T03:32:15;6.95;;;3.75;;
66478;SDS011;53294;47.912;13.526;2023-03-23T03:34:43;6.65;;;3.47;;
66478;SDS011;53294;47.912;13.526;2023-03-23T03:37:09;6.55;;;3.58;;
66478;SDS011;53294;47.912;13.526;2023-03-23T03:39:37;5.75;;;3.60;;
66478;SDS011;53294;47.912;13.526;2023-03-23T03:42:03;7.70;;;3.35;;
66478;SDS011;53294;47.912;13.526;2023-03-23T03:44:30;6.80;;;3.40;;
66478;SDS011;53294;47.912;13.526;2023-03-23T03:46:56;5.80;;;3.30;;
66478;SDS011;53294;47.912;13.526;2023-03-23T03:49:21;5.63;;;3.10;;
66478;SDS011;53294;47.912;13.526;2023-03-23T03:51:48;4.57;;;2.83;;
66478;SDS011;53294;47.912;13.526;2023-03-23T03:54:13;5.78;;;3.25;;
66478;SDS011;53294;47.912;13.526;2023-03-23T03:56:39;5.53;;;3.72;;
66478;SDS011;53294;47.912;13.526;2023-03-23T03:59:07;5.28;;;3.42;;
66478;SDS011;53294;47.912;13.526;2023-03-23T04:01:34;5.93;;;3.10;;
66478;SDS011;53294;47.912;13.526;2023-03-23T04:04:03;7.05;;;3.35;;
66478;SDS011;53294;47.912;13.526;2023-03-23T04:06:32;5.72;;;3.60;;
66478;SDS011;53294;47.912;13.526;2023-03-23T04:08:58;5.45;;;3.00;;
66478;SDS011;53294;47.912;13.526;2023-03-23T04:11:24;5.68;;;3.22;;
66478;SDS011;53294;47.912;13.526;2023-03-23T04:13:51;5.05;;;3.20;;
66478;SDS011;53294;47.912;13.526;2023-03-23T04:16:16;4.55;;;2.80;;
66478;SDS011;53294;47.912;13.526;2023-03-23T04:18:42;4.18;;;2.92;;
66478;SDS011;53294;47.912;13.526;2023-03-23T04:21:08;5.50;;;3.22;;
66478;SDS011;53294;47.912;13.526;2023-03-23T04:23:34;5.45;;;3.38;;
66478;SDS011;53294;47.912;13.526;2023-03-23T04:26:01;7.63;;;3.80;;
66478;SDS011;53294;47.912;13.526;2023-03-23T04:28:28;7.50;;;3.63;;
66478;SDS011;53294;47.912;13.526;2023-03-23T04:30:54;5.63;;;2.90;;
66478;SDS011;53294;47.912;13.526;2023-03-23T04:33:21;6.28;;;3.28;;
66478;SDS011;53294;47.912;13.526;2023-03-23T04:35:50;6.60;;;2.80;;
66478;SDS011;53294;47.912;13.526;2023-03-23T04:38:18;6.05;;;3.53;;
66478;SDS011;53294;47.912;13.526;2023-03-23T04:40:46;5.25;;;3.40;;
66478;SDS011;53294;47.912;13.526;2023-03-23T04:43:13;4.10;;;2.80;;
66478;SDS011;53294;47.912;13.526;2023-03-23T04:45:40;4.22;;;2.72;;
66478;SDS011;53294;47.912;13.526;2023-03-23T04:48:07;5.53;;;2.90;;
66478;SDS011;53294;47.912;13.526;2023-03-23T04:50:33;4.32;;;3.03;;
66478;SDS011;53294;47.912;13.526;2023-03-23T04:53:00;4.68;;;2.75;;
66478;SDS011;53294;47.912;13.526;2023-03-23T04:55:29;4.60;;;2.55;;
66478;SDS011;53294;47.912;13.526;2023-03-23T04:57:57;5.97;;;3.63;;
66478;SDS011;53294;47.912;13.526;2023-03-23T05:00:26;4.25;;;2.65;;
66478;SDS011;53294;47.912;13.526;2023-03-23T05:02:52;4.78;;;2.85;;
66478;SDS011;53294;47.912;13.526;2023-03-23T05:05:18;5.40;;;2.65;;
66478;SDS011;53294;47.912;13.526;2023-03-23T05:07:45;6.53;;;3.72;;
66478;SDS011;53294;47.912;13.526;2023-03-23T05:10:11;6.88;;;4.60;;
66478;SDS011;53294;47.912;13.526;2023-03-23T05:12:38;6.93;;;4.47;;
66478;SDS011;53294;47.912;13.526;2023-03-23T05:15:03;7.47;;;4.30;;
66478;SDS011;53294;47.912;13.526;2023-03-23T05:17:31;6.13;;;4.07;;
66478;SDS011;53294;47.912;13.526;2023-03-23T05:19:57;4.82;;;3.22;;
66478;SDS011;53294;47.912;13.526;2023-03-23T05:22:23;6.00;;;3.55;;
66478;SDS011;53294;47.912;13.526;2023-03-23T05:24:51;7.10;;;3.60;;
66478;SDS011;53294;47.912;13.526;2023-03-23T05:27:17;4.25;;;2.80;;
66478;SDS011;53294;47.912;13.526;2023-03-23T05:29:44;5.85;;;3.28;;
66478;SDS011;53294;47.912;13.526;2023-03-23T05:32:16;4.53;;;2.78;;
66478;SDS011;53294;47.912;13.526;2023-03-23T05:34:44;7.00;;;5.93;;
66478;SDS011;53294;47.912;13.526;2023-03-23T05:37:09;6.35;;;4.50;;
66478;SDS011;53294;47.912;13.526;2023-03-23T05:39:37;4.70;;;3.15;;
66478;SDS011;53294;47.912;13.526;2023-03-23T05:42:03;5.68;;;2.78;;
66478;SDS011;53294;47.912;13.526;2023-03-23T05:44:29;5.15;;;2.55;;
66478;SDS011;53294;47.912;13.526;2023-03-23T05:46:55;4.60;;;2.95;;
66478;SDS011;53294;47.912;13.526;2023-03-23T05:49:21;5.43;;;2.90;;
66478;SDS011;53294;47.912;13.526;2023-03-23T05:51:47;5.05;;;2.97;;
66478;SDS011;53294;47.912;13.526;2023-03-23T05:54:15;5.43;;;3.33;;
66478;SDS011;53294;47.912;13.526;2023-03-23T05:56:41;4.63;;;3.20;;
66478;SDS011;53294;47.912;13.526;2023-03-23T05:59:07;5.13;;;3.13;;
66478;SDS011;53294;47.912;13.526;2023-03-23T06:01:36;3.72;;;2.58;;
66478;SDS011;53294;47.912;13.526;2023-03-23T06:04:02;3.85;;;2.63;;
66478;SDS011;53294;47.912;13.526;2023-03-23T06:06:29;4.40;;;2.88;;
66478;SDS011;53294;47.912;13.526;2023-03-23T06:08:56;6.47;;;3.13;;
66478;SDS011;53294;47.912;13.526;2023-03-23T06:11:22;4.07;;;2.78;;
66478;SDS011;53294;47.912;13.526;2023-03-23T06:13:49;4.50;;;2.90;;
66478;SDS011;53294;47.912;13.526;2023-03-23T06:16:15;4.78;;;2.88;;
66478;SDS011;53294;47.912;13.526;2023-03-23T06:18:41;4.85;;;2.92;;
66478;SDS011;53294;47.912;13.526;2023-03-23T06:21:07;5.05;;;3.08;;
66478;SDS011;53294;47.912;13.526;2023-03-23T06:23:34;4.22;;;2.78;;
66478;SDS011;53294;47.912;13.526;2023-03-23T06:26:01;5.75;;;2.75;;
66478;SDS011;53294;47.912;13.526;2023-03-23T06:28:28;3.60;;;2.22;;
66478;SDS011;53294;47.912;13.526;2023-03-23T06:30:54;4.45;;;2.40;;
66478;SDS011;53294;47.912;13.526;2023-03-23T06:33:20;3.78;;;2.38;;
66478;SDS011;53294;47.912;13.526;2023-03-23T06:35:47;3.72;;;2.42;;
66478;SDS011;53294;47.912;13.526;2023-03-23T06:38:14;3.83;;;2.50;;
66478;SDS011;53294;47.912;13.526;2023-03-23T06:40:39;4.53;;;2.42;;
66478;SDS011;53294;47.912;13.526;2023-03-23T06:43:06;3.67;;;2.30;;
66478;SDS011;53294;47.912;13.526;2023-03-23T06:45:31;3.60;;;2.25;;
66478;SDS011;53294;47.912;13.526;2023-03-23T06:47:57;3.85;;;2.30;;
66478;SDS011;53294;47.912;13.526;2023-03-23T06:50:22;4.60;;;2.97;;
66478;SDS011;53294;47.912;13.526;2023-03-23T06:52:48;4.82;;;2.97;;
66478;SDS011;53294;47.912;13.526;2023-03-23T06:55:16;4.57;;;2.80;;
66478;SDS011;53294;47.912;13.526;2023-03-23T06:57:42;5.40;;;2.88;;
66478;SDS011;53294;47.912;13.526;2023-03-23T07:00:09;5.53;;;2.63;;
66478;SDS011;53294;47.912;13.526;2023-03-23T07:02:39;4.95;;;2.97;;
66478;SDS011;53294;47.912;13.526;2023-03-23T07:05:06;4.55;;;2.60;;
66478;SDS011;53294;47.912;13.526;2023-03-23T07:07:34;4.25;;;2.80;;
66478;SDS011;53294;47.912;13.526;2023-03-23T07:10:01;3.85;;;2.50;;
66478;SDS011;53294;47.912;13.526;2023-03-23T07:12:28;4.93;;;2.63;;
66478;SDS011;53294;47.912;13.526;2023-03-23T07:14:54;4.35;;;2.53;;
66478;SDS011;53294;47.912;13.526;2023-03-23T07:17:20;4.35;;;2.60;;
66478;SDS011;53294;47.912;13.526;2023-03-23T07:19:45;6.90;;;3.30;;
66478;SDS011;53294;47.912;13.526;2023-03-23T07:22:11;5.50;;;2.80;;
66478;SDS011;53294;47.912;13.526;2023-03-23T07:24:36;3.38;;;2.30;;
66478;SDS011;53294;47.912;13.526;2023-03-23T07:27:02;4.13;;;2.58;;
66478;SDS011;53294;47.912;13.526;2023-03-23T07:29:28;4.53;;;2.67;;
66478;SDS011;53294;47.912;13.526;2023-03-23T07:31:53;7.32;;;2.90;;
66478;SDS011;53294;47.912;13.526;2023-03-23T07:34:19;6.18;;;2.95;;
66478;SDS011;53294;47.912;13.526;2023-03-23T07:36:45;5.80;;;2.75;;
66478;SDS011;53294;47.912;13.526;2023-03-23T07:39:11;6.50;;;2.88;;
66478;SDS011;53294;47.912;13.526;2023-03-23T07:41:38;4.78;;;2.30;;
66478;SDS011;53294;47.912;13.526;2023-03-23T07:44:04;3.70;;;2.65;;
66478;SDS011;53294;47.912;13.526;2023-03-23T07:46:30;9.18;;;5.32;;
66478;SDS011;53294;47.912;13.526;2023-03-23T07:48:57;6.10;;;3.50;;
66478;SDS011;53294;47.912;13.526;2023-03-23T07:51:22;4.35;;;2.88;;
66478;SDS011;53294;47.912;13.526;2023-03-23T07:53:50;7.07;;;3.30;;
66478;SDS011;53294;47.912;13.526;2023-03-23T07:56:16;7.22;;;3.63;;
66478;SDS011;53294;47.912;13.526;2023-03-23T07:58:47;5.28;;;2.92;;
66478;SDS011;53294;47.912;13.526;2023-03-23T08:01:13;5.22;;;3.40;;
66478;SDS011;53294;47.912;13.526;2023-03-23T08:03:39;5.65;;;3.03;;
66478;SDS011;53294;47.912;13.526;2023-03-23T08:06:05;5.22;;;2.90;;
66478;SDS011;53294;47.912;13.526;2023-03-23T08:08:31;6.95;;;5.00;;
66478;SDS011;53294;47.912;13.526;2023-03-23T08:10:58;7.30;;;4.40;;
66478;SDS011;53294;47.912;13.526;2023-03-23T08:13:24;10.55;;;5.70;;
66478;SDS011;53294;47.912;13.526;2023-03-23T08:15:50;7.75;;;5.15;;
66478;SDS011;53294;47.912;13.526;2023-03-23T08:18:16;4.80;;;2.75;;
66478;SDS011;53294;47.912;13.526;2023-03-23T08:20:42;9.02;;;4.18;;
66478;SDS011;53294;47.912;13.526;2023-03-23T08:23:09;4.55;;;3.30;;
66478;SDS011;53294;47.912;13.526;2023-03-23T08:25:35;5.55;;;3.13;;
66478;SDS011;53294;47.912;13.526;2023-03-23T08:28:01;7.07;;;4.78;;
66478;SDS011;53294;47.912;13.526;2023-03-23T08:30:27;4.30;;;2.75;;
66478;SDS011;53294;47.912;13.526;2023-03-23T08:32:55;3.40;;;2.58;;
66478;SDS011;53294;47.912;13.526;2023-03-23T08:35:22;5.57;;;3.50;;
66478;SDS011;53294;47.912;13.526;2023-03-23T08:37:48;5.35;;;2.70;;
66478;SDS011;53294;47.912;13.526;2023-03-23T08:40:19;4.65;;;2.97;;
66478;SDS011;53294;47.912;13.526;2023-03-23T08:42:47;4.50;;;2.80;;
66478;SDS011;53294;47.912;13.526;2023-03-23T08:45:15;4.97;;;2.33;;
66478;SDS011;53294;47.912;13.526;2023-03-23T08:47:43;3.83;;;2.33;;
66478;SDS011;53294;47.912;13.526;2023-03-23T08:50:11;3.88;;;2.40;;
66478;SDS011;53294;47.912;13.526;2023-03-23T08:52:38;8.07;;;4.00;;
66478;SDS011;53294;47.912;13.526;2023-03-23T08:55:04;9.00;;;4.43;;
66478;SDS011;53294;47.912;13.526;2023-03-23T08:57:34;4.68;;;2.60;;
66478;SDS011;53294;47.912;13.526;2023-03-23T09:00:01;5.88;;;2.40;;
66478;SDS011;53294;47.912;13.526;2023-03-23T09:02:38;3.92;;;2.50;;
66478;SDS011;53294;47.912;13.526;2023-03-23T09:05:04;5.45;;;2.70;;
66478;SDS011;53294;47.912;13.526;2023-03-23T09:07:29;3.75;;;2.08;;
66478;SDS011;53294;47.912;13.526;2023-03-23T09:09:55;3.20;;;2.05;;
66478;SDS011;53294;47.912;13.526;2023-03-23T09:12:20;5.95;;;2.00;;
66478;SDS011;53294;47.912;13.526;2023-03-23T09:14:46;3.72;;;1.88;;
66478;SDS011;53294;47.912;13.526;2023-03-23T09:17:12;4.30;;;2.22;;
66478;SDS011;53294;47.912;13.526;2023-03-23T09:19:37;3.22;;;1.95;;
66478;SDS011;53294;47.912;13.526;2023-03-23T09:22:03;5.13;;;2.30;;
66478;SDS011;53294;47.912;13.526;2023-03-23T09:24:29;5.20;;;2.70;;
66478;SDS011;53294;47.912;13.526;2023-03-23T09:26:55;3.30;;;2.28;;
66478;SDS011;53294;47.912;13.526;2023-03-23T09:29:23;4.35;;;2.58;;
66478;SDS011;53294;47.912;13.526;2023-03-23T09:31:50;4.82;;;2.30;;
66478;SDS011;53294;47.912;13.526;2023-03-23T09:34:16;5.03;;;2.55;;
66478;SDS011;53294;47.912;13.526;2023-03-23T09:36:42;6.10;;;2.25;;
66478;SDS011;53294;47.912;13.526;2023-03-23T09:39:08;4.68;;;2.33;;
66478;SDS011;53294;47.912;13.526;2023-03-23T09:50:11;4.55;;;2.20;;
66478;SDS011;53294;47.912;13.526;2023-03-23T09:55:26;2.75;;;1.88;;
66478;SDS011;53294;47.912;13.526;2023-03-23T10:00:50;2.40;;;1.95;;
66478;SDS011;53294;47.912;13.526;2023-03-23T10:03:29;4.10;;;2.00;;
66478;SDS011;53294;47.912;13.526;2023-03-23T10:05:59;7.43;;;2.03;;
66478;SDS011;53294;47.912;13.526;2023-03-23T10:08:26;3.22;;;1.90;;
66478;SDS011;53294;47.912;13.526;2023-03-23T10:16:24;4.68;;;1.80;;
66478;SDS011;53294;47.912;13.526;2023-03-23T10:18:58;3.08;;;1.52;;
66478;SDS011;53294;47.912;13.526;2023-03-23T10:21:25;3.50;;;1.85;;
66478;SDS011;53294;47.912;13.526;2023-03-23T10:31:44;2.05;;;1.60;;
66478;SDS011;53294;47.912;13.526;2023-03-23T10:34:24;4.45;;;2.00;;
66478;SDS011;53294;47.912;13.526;2023-03-23T10:37:11;4.15;;;1.90;;
66478;SDS011;53294;47.912;13.526;2023-03-23T10:42:22;3.00;;;1.60;;
66478;SDS011;53294;47.912;13.526;2023-03-23T10:44:53;2.88;;;1.58;;
66478;SDS011;53294;47.912;13.526;2023-03-23T10:47:20;3.88;;;2.00;;
66478;SDS011;53294;47.912;13.526;2023-03-23T10:49:56;6.00;;;1.90;;
66478;SDS011;53294;47.912;13.526;2023-03-23T10:54:50;4.78;;;2.15;;
66478;SDS011;53294;47.912;13.526;2023-03-23T10:57:26;5.97;;;2.15;;
66478;SDS011;53294;47.912;13.526;2023-03-23T10:59:58;5.50;;;2.08;;
66478;SDS011;53294;47.912;13.526;2023-03-23T11:02:43;2.83;;;1.70;;
66478;SDS011;53294;47.912;13.526;2023-03-23T11:05:16;3.70;;;1.98;;
66478;SDS011;53294;47.912;13.526;2023-03-23T11:07:47;3.05;;;1.70;;
66478;SDS011;53294;47.912;13.526;2023-03-23T11:10:34;5.03;;;1.88;;
66478;SDS011;53294;47.912;13.526;2023-03-23T11:13:09;5.43;;;1.40;;
66478;SDS011;53294;47.912;13.526;2023-03-23T11:15:40;2.72;;;1.35;;
66478;SDS011;53294;47.912;13.526;2023-03-23T11:18:09;5.03;;;1.70;;
66478;SDS011;53294;47.912;13.526;2023-03-23T11:20:39;2.67;;;1.60;;
66478;SDS011;53294;47.912;13.526;2023-03-23T11:25:50;2.45;;;1.58;;
66478;SDS011;53294;47.912;13.526;2023-03-23T11:28:35;3.40;;;1.48;;
66478;SDS011;53294;47.912;13.526;2023-03-23T11:31:03;2.45;;;1.70;;
66478;SDS011;53294;47.912;13.526;2023-03-23T11:34:05;3.30;;;1.30;;
66478;SDS011;53294;47.912;13.526;2023-03-23T11:36:36;2.25;;;1.50;;
66478;SDS011;53294;47.912;13.526;2023-03-23T11:39:18;1.77;;;1.23;;
66478;SDS011;53294;47.912;13.526;2023-03-23T11:41:46;3.33;;;1.73;;
66478;SDS011;53294;47.912;13.526;2023-03-23T11:44:13;5.18;;;1.65;;
66478;SDS011;53294;47.912;13.526;2023-03-23T11:46:41;2.38;;;1.45;;
66478;SDS011;53294;47.912;13.526;2023-03-23T11:49:20;3.45;;;1.40;;
66478;SDS011;53294;47.912;13.526;2023-03-23T11:51:54;2.60;;;1.33;;
66478;SDS011;53294;47.912;13.526;2023-03-23T11:56:55;1.95;;;1.35;;
66478;SDS011;53294;47.912;13.526;2023-03-23T11:59:28;4.05;;;1.42;;
66478;SDS011;53294;47.912;13.526;2023-03-23T12:07:26;1.85;;;1.25;;
66478;SDS011;53294;47.912;13.526;2023-03-23T12:18:19;1.85;;;1.10;;
66478;SDS011;53294;47.912;13.526;2023-03-23T12:20:57;2.10;;;1.20;;
66478;SDS011;53294;47.912;13.526;2023-03-23T12:34:27;2.58;;;1.30;;
66478;SDS011;53294;47.912;13.526;2023-03-23T12:44:56;1.90;;;1.30;;
66478;SDS011;53294;47.912;13.526;2023-03-23T12:47:29;2.03;;;1.42;;
66478;SDS011;53294;47.912;13.526;2023-03-23T12:50:07;3.15;;;1.27;;
66478;SDS011;53294;47.912;13.526;2023-03-23T12:58:05;2.33;;;1.27;;
66478;SDS011;53294;47.912;13.526;2023-03-23T13:00:46;2.83;;;1.60;;
66478;SDS011;53294;47.912;13.526;2023-03-23T13:08:48;2.75;;;1.60;;
66478;SDS011;53294;47.912;13.526;2023-03-23T13:11:29;7.65;;;1.98;;
66478;SDS011;53294;47.912;13.526;2023-03-23T13:14:04;2.83;;;1.30;;
66478;SDS011;53294;47.912;13.526;2023-03-23T13:24:57;2.45;;;1.52;;
66478;SDS011;53294;47.912;13.526;2023-03-23T13:27:29;2.58;;;1.50;;
66478;SDS011;53294;47.912;13.526;2023-03-23T13:29:55;3.08;;;1.73;;
66478;SDS011;53294;47.912;13.526;2023-03-23T13:32:44;2.72;;;1.73;;
66478;SDS011;53294;47.912;13.526;2023-03-23T13:35:13;4.15;;;2.03;;
66478;SDS011;53294;47.912;13.526;2023-03-23T13:37:44;3.67;;;1.50;;
66478;SDS011;53294;47.912;13.526;2023-03-23T13:42:50;2.85;;;1.52;;
66478;SDS011;53294;47.912;13.526;2023-03-23T13:45:22;2.70;;;1.58;;
66478;SDS011;53294;47.912;13.526;2023-03-23T13:48:04;3.10;;;1.88;;
66478;SDS011;53294;47.912;13.526;2023-03-23T13:50:58;7.47;;;2.45;;
66478;SDS011;53294;47.912;13.526;2023-03-23T13:53:29;2.75;;;1.73;;
66478;SDS011;53294;47.912;13.526;2023-03-23T13:56:05;3.95;;;1.92;;
66478;SDS011;53294;47.912;13.526;2023-03-23T13:58:51;3.33;;;1.77;;
66478;SDS011;53294;47.912;13.526;2023-03-23T14:01:33;2.88;;;1.55;;
66478;SDS011;53294;47.912;13.526;2023-03-23T14:04:10;3.45;;;1.73;;
66478;SDS011;53294;47.912;13.526;2023-03-23T14:06:41;3.95;;;1.90;;
66478;SDS011;53294;47.912;13.526;2023-03-23T14:12:39;2.83;;;1.40;;
66478;SDS011;53294;47.912;13.526;2023-03-23T14:15:01;1.90;;;1.10;;
66478;SDS011;53294;47.912;13.526;2023-03-23T14:17:30;2.95;;;1.60;;
66478;SDS011;53294;47.912;13.526;2023-03-23T14:20:05;2.30;;;1.40;;
66478;SDS011;53294;47.912;13.526;2023-03-23T14:22:33;3.63;;;1.35;;
66478;SDS011;53294;47.912;13.526;2023-03-23T14:25:11;2.90;;;1.20;;
66478;SDS011;53294;47.912;13.526;2023-03-23T14:27:38;3.15;;;1.60;;
66478;SDS011;53294;47.912;13.526;2023-03-23T14:30:08;2.97;;;1.40;;
66478;SDS011;53294;47.912;13.526;2023-03-23T14:32:44;3.95;;;1.63;;
66478;SDS011;53294;47.912;13.526;2023-03-23T14:37:53;3.67;;;1.58;;
66478;SDS011;53294;47.912;13.526;2023-03-23T14:40:20;3.90;;;1.40;;
66478;SDS011;53294;47.912;13.526;2023-03-23T14:42:46;2.50;;;1.50;;
66478;SDS011;53294;47.912;13.526;2023-03-23T14:45:14;2.10;;;1.38;;
66478;SDS011;53294;47.912;13.526;2023-03-23T14:47:45;2.57;;;1.50;;
66478;SDS011;53294;47.912;13.526;2023-03-23T14:52:48;2.78;;;1.48;;
66478;SDS011;53294;47.912;13.526;2023-03-23T14:55:19;3.65;;;1.70;;
66478;SDS011;53294;47.912;13.526;2023-03-23T14:57:46;3.65;;;1.95;;
66478;SDS011;53294;47.912;13.526;2023-03-23T15:02:40;2.97;;;1.70;;
66478;SDS011;53294;47.912;13.526;2023-03-23T15:05:17;2.50;;;1.38;;
66478;SDS011;53294;47.912;13.526;2023-03-23T15:08:46;3.10;;;1.73;;
66478;SDS011;53294;47.912;13.526;2023-03-23T15:11:04;4.07;;;1.60;;
66478;SDS011;53294;47.912;13.526;2023-03-23T15:13:30;2.72;;;1.67;;
66478;SDS011;53294;47.912;13.526;2023-03-23T15:16:03;4.45;;;2.00;;
66478;SDS011;53294;47.912;13.526;2023-03-23T15:18:38;3.67;;;1.50;;
66478;SDS011;53294;47.912;13.526;2023-03-23T15:21:09;3.10;;;1.70;;
66478;SDS011;53294;47.912;13.526;2023-03-23T15:23:40;2.65;;;1.63;;
66478;SDS011;53294;47.912;13.526;2023-03-23T15:26:14;3.75;;;1.80;;
66478;SDS011;53294;47.912;13.526;2023-03-23T15:29:04;3.00;;;1.70;;
66478;SDS011;53294;47.912;13.526;2023-03-23T15:31:32;2.80;;;1.67;;
66478;SDS011;53294;47.912;13.526;2023-03-23T15:34:02;2.38;;;1.50;;
66478;SDS011;53294;47.912;13.526;2023-03-23T15:36:31;2.35;;;1.77;;
66478;SDS011;53294;47.912;13.526;2023-03-23T15:38:59;3.90;;;1.50;;
66478;SDS011;53294;47.912;13.526;2023-03-23T15:41:31;3.05;;;1.55;;
66478;SDS011;53294;47.912;13.526;2023-03-23T15:44:11;3.05;;;1.80;;
66478;SDS011;53294;47.912;13.526;2023-03-23T15:46:51;3.45;;;1.40;;
66478;SDS011;53294;47.912;13.526;2023-03-23T15:49:24;3.35;;;1.73;;
66478;SDS011;53294;47.912;13.526;2023-03-23T15:51:50;3.60;;;1.83;;
66478;SDS011;53294;47.912;13.526;2023-03-23T15:54:16;3.50;;;2.10;;
66478;SDS011;53294;47.912;13.526;2023-03-23T15:56:41;3.70;;;2.00;;
66478;SDS011;53294;47.912;13.526;2023-03-23T15:59:08;3.95;;;1.92;;
66478;SDS011;53294;47.912;13.526;2023-03-23T16:01:37;6.03;;;2.05;;
66478;SDS011;53294;47.912;13.526;2023-03-23T16:04:13;4.53;;;2.00;;
66478;SDS011;53294;47.912;13.526;2023-03-23T16:06:43;4.93;;;1.90;;
66478;SDS011;53294;47.912;13.526;2023-03-23T16:09:18;4.60;;;2.30;;
66478;SDS011;53294;47.912;13.526;2023-03-23T16:11:46;5.55;;;2.30;;
66478;SDS011;53294;47.912;13.526;2023-03-23T16:14:13;4.90;;;2.00;;
66478;SDS011;53294;47.912;13.526;2023-03-23T16:16:47;5.25;;;2.35;;
66478;SDS011;53294;47.912;13.526;2023-03-23T16:19:16;6.65;;;2.40;;
66478;SDS011;53294;47.912;13.526;2023-03-23T16:21:45;3.88;;;2.22;;
66478;SDS011;53294;47.912;13.526;2023-03-23T16:24:12;5.10;;;2.60;;
66478;SDS011;53294;47.912;13.526;2023-03-23T16:26:39;4.53;;;2.40;;
66478;SDS011;53294;47.912;13.526;2023-03-23T16:29:13;5.95;;;2.50;;
66478;SDS011;53294;47.912;13.526;2023-03-23T16:32:01;7.50;;;2.70;;
66478;SDS011;53294;47.912;13.526;2023-03-23T16:34:28;6.78;;;2.42;;
66478;SDS011;53294;47.912;13.526;2023-03-23T16:36:58;5.45;;;2.60;;
66478;SDS011;53294;47.912;13.526;2023-03-23T16:39:25;4.70;;;2.60;;
66478;SDS011;53294;47.912;13.526;2023-03-23T16:41:52;4.90;;;2.92;;
66478;SDS011;53294;47.912;13.526;2023-03-23T16:44:18;5.60;;;2.67;;
66478;SDS011;53294;47.912;13.526;2023-03-23T16:46:45;4.72;;;2.95;;
66478;SDS011;53294;47.912;13.526;2023-03-23T16:49:12;5.35;;;2.83;;
66478;SDS011;53294;47.912;13.526;2023-03-23T16:51:38;6.57;;;3.47;;
66478;SDS011;53294;47.912;13.526;2023-03-23T16:54:07;5.75;;;3.15;;
66478;SDS011;53294;47.912;13.526;2023-03-23T16:56:34;6.68;;;3.15;;